Time;durP1;ratioP1;P1;durP2;ratioP2;P2;SDS_P1;SDS_P2;PMS_P1;PMS_P2;Temp;Humidity;BMP_temperature;BMP_pressure;BME280_temperature;BME280_humidity;BME280_pressure;Samples;Min_cycle;Max_cycle;Signal;HPM_P1;HPM_P2
2022/10/30 00:00:11;;;;;;;16.83;5.20;;;;;;;10.66;100.00;96374.03;1026586;28;20142;-73
2022/10/30 00:00:42;;;;;;;19.63;6.07;;;;;;;10.65;100.00;96375.09;1020849;29;20026;-72
2022/10/30 00:01:12;;;;;;;12.18;6.28;;;;;;;10.61;100.00;96367.72;1027331;28;20376;-72
2022/10/30 00:01:43;;;;;;;15.13;5.78;;;;;;;10.64;100.00;96371.69;1030628;28;20018;-72
2022/10/30 00:02:13;;;;;;;17.33;6.72;;;;;;;10.64;100.00;96371.69;1023104;29;20447;-71
2022/10/30 00:02:46;;;;;;;15.60;5.60;;;;;;;10.65;100.00;96375.09;1027689;28;20046;-72
2022/10/30 00:03:16;;;;;;;9.95;5.05;;;;;;;10.65;100.00;96372.47;1031491;28;20025;-72
2022/10/30 00:03:47;;;;;;;19.25;5.97;;;;;;;10.58;100.00;96365.56;1019650;29;20268;-72
2022/10/30 00:04:17;;;;;;;18.02;5.63;;;;;;;10.41;100.00;96343.88;1027727;28;20567;-72
2022/10/30 00:04:48;;;;;;;15.57;5.93;;;;;;;10.61;100.00;96369.56;1028736;28;20034;-72
2022/10/30 00:05:19;;;;;;;11.88;5.15;;;;;;;10.59;100.00;96371.63;1031718;28;20026;-72
2022/10/30 00:05:50;;;;;;;12.32;5.70;;;;;;;10.59;100.00;96369.00;1029806;28;20142;-71
2022/10/30 00:06:21;;;;;;;18.23;6.25;;;;;;;10.58;100.00;96370.81;1027780;28;20643;-71
2022/10/30 00:06:51;;;;;;;11.70;5.68;;;;;;;10.55;100.00;96366.06;1027308;28;20278;-72
2022/10/30 00:07:22;;;;;;;15.95;5.45;;;;;;;10.54;100.00;96368.94;1023442;28;20500;-71
2022/10/30 00:07:57;;;;;;;18.65;6.70;;;;;;;10.49;100.00;96359.19;1031499;28;20411;-73
2022/10/30 00:08:27;;;;;;;16.08;6.10;;;;;;;10.54;100.00;96369.75;1024951;28;20055;-72
2022/10/30 00:08:58;;;;;;;10.50;5.53;;;;;;;10.52;100.00;96371.00;1023602;28;20641;-72
2022/10/30 00:09:28;;;;;;;15.45;5.60;;;;;;;10.51;100.00;96372.84;1031748;28;20022;-73
2022/10/30 00:09:59;;;;;;;13.98;6.45;;;;;;;10.46;100.00;96359.69;1030095;28;20045;-72
2022/10/30 00:10:29;;;;;;;16.25;5.93;;;;;;;10.49;100.00;96372.28;1023642;28;20747;-70
2022/10/30 00:11:10;;;;;;;13.85;5.88;;;;;;;10.43;100.00;96362.81;1029817;28;20030;-72
2022/10/30 00:11:41;;;;;;;16.25;5.68;;;;;;;10.47;100.00;96365.72;1025010;28;20026;-71
2022/10/30 00:12:11;;;;;;;14.30;5.28;;;;;;;10.41;100.00;96359.63;1019141;29;20370;-70
2022/10/30 00:12:42;;;;;;;15.60;6.00;;;;;;;10.47;100.00;96373.59;1023572;29;20090;-72
2022/10/30 00:13:12;;;;;;;13.55;6.30;;;;;;;10.45;100.00;96371.22;1031689;28;20058;-72
2022/10/30 00:13:43;;;;;;;11.82;5.63;;;;;;;10.43;100.00;96375.09;1023588;28;20027;-72
2022/10/30 00:14:14;;;;;;;20.98;6.38;;;;;;;10.42;100.00;96366.44;1019668;29;20027;-73
2022/10/30 00:14:44;;;;;;;20.88;6.45;;;;;;;10.41;100.00;96370.13;1023773;29;20500;-71
2022/10/30 00:15:15;;;;;;;12.93;5.95;;;;;;;10.41;100.00;96370.13;1027590;28;20026;-71
2022/10/30 00:15:52;;;;;;;16.55;6.65;;;;;;;10.39;100.00;96369.56;1027732;28;20043;-73
2022/10/30 00:16:22;;;;;;;17.88;5.68;;;;;;;10.35;100.00;96371.09;1023616;28;20074;-72
2022/10/30 00:16:53;;;;;;;24.70;6.53;;;;;;;10.36;100.00;96372.66;1025587;28;20843;-72
2022/10/30 00:17:23;;;;;;;18.98;6.93;;;;;;;10.37;100.00;96376.91;1027527;28;20042;-72
2022/10/30 00:17:54;;;;;;;15.43;6.78;;;;;;;10.30;100.00;96363.19;1019624;29;20028;-72
2022/10/30 00:18:24;;;;;;;16.15;7.43;;;;;;;10.28;100.00;96368.66;1020515;28;20639;-72
2022/10/30 00:18:54;;;;;;;18.25;6.82;;;;;;;10.33;100.00;96379.22;1023453;29;20035;-73
2022/10/30 00:19:25;;;;;;;16.13;6.72;;;;;;;10.33;100.00;96373.97;1027758;28;20034;-72
2022/10/30 00:19:55;;;;;;;25.27;6.75;;;;;;;10.33;100.00;96376.59;1019720;29;20070;-74
2022/10/30 00:20:26;;;;;;;23.35;7.10;;;;;;;10.31;100.00;96375.25;1019527;29;20495;-72
2022/10/30 00:20:56;;;;;;;22.77;7.50;;;;;;;10.32;100.00;96376.81;1027610;28;20027;-71
2022/10/30 00:21:27;;;;;;;12.50;6.43;;;;;;;10.28;100.00;96370.50;1023550;29;20062;-72
2022/10/30 00:21:57;;;;;;;20.92;7.30;;;;;;;10.28;100.00;96379.16;1031607;28;20029;-71
2022/10/30 00:22:28;;;;;;;19.33;6.75;;;;;;;10.26;100.00;96376.00;1030913;28;20026;-71
2022/10/30 00:22:58;;;;;;;16.92;6.32;;;;;;;10.27;100.00;96374.16;1035770;28;20666;-72
2022/10/30 00:23:29;;;;;;;13.77;6.68;;;;;;;10.27;100.00;96368.91;1027379;28;20086;-71
2022/10/30 00:23:59;;;;;;;17.73;6.00;;;;;;;10.27;100.00;96376.78;1027677;28;20372;-72
2022/10/30 00:24:30;;;;;;;11.45;6.40;;;;;;;10.23;100.00;96371.19;1035329;28;20077;-72
2022/10/30 00:25:01;;;;;;;26.25;6.97;;;;;;;10.25;100.00;96381.44;1027647;28;20065;-73
2022/10/30 00:25:33;;;;;;;15.15;6.40;;;;;;;10.23;100.00;96373.81;1031291;28;20034;-71
2022/10/30 00:26:04;;;;;;;16.92;6.43;;;;;;;10.23;100.00;96379.06;1027581;28;20814;-73
2022/10/30 00:26:35;;;;;;;15.57;6.55;;;;;;;10.21;100.00;96377.72;1027457;28;20336;-72
2022/10/30 00:27:06;;;;;;;19.15;6.03;;;;;;;10.20;100.00;96373.53;1031637;28;20027;-71
2022/10/30 00:27:36;;;;;;;17.60;7.20;;;;;;;10.14;100.00;96368.19;1026692;28;20037;-73
2022/10/30 00:28:07;;;;;;;26.35;7.63;;;;;;;10.20;100.00;96378.78;1023682;29;20038;-74
2022/10/30 00:28:37;;;;;;;18.50;6.38;;;;;;;10.19;100.00;96379.78;1028882;28;20023;-73
2022/10/30 00:29:08;;;;;;;14.48;6.30;;;;;;;10.17;100.00;96374.78;1032399;28;20539;-72
2022/10/30 00:29:41;;;;;;;14.52;5.95;;;;;;;10.17;100.00;96384.50;1019751;29;20039;-73
2022/10/30 00:30:14;;;;;;;14.77;6.88;;;;;;;10.18;100.00;96381.63;1031388;28;20062;-72
2022/10/30 00:30:44;;;;;;;17.48;6.22;;;;;;;10.15;100.00;96377.66;1027671;28;20379;-72
2022/10/30 00:31:15;;;;;;;13.23;6.25;;;;;;;10.13;100.00;96379.75;1027252;28;20282;-72
2022/10/30 00:31:45;;;;;;;17.70;6.47;;;;;;;10.14;100.00;96381.31;1023769;29;20129;-72
2022/10/30 00:32:16;;;;;;;16.48;6.53;;;;;;;10.12;100.00;96378.13;1027122;28;20074;-73
2022/10/30 00:32:46;;;;;;;14.40;5.88;;;;;;;10.11;100.00;96375.75;1028301;28;20163;-72
2022/10/30 00:33:17;;;;;;;14.82;7.07;;;;;;;10.10;100.00;96371.56;1027706;28;20134;-71
2022/10/30 00:33:51;;;;;;;13.75;5.82;;;;;;;10.10;100.00;96379.44;1031657;28;20112;-72
2022/10/30 00:34:22;;;;;;;15.30;6.30;;;;;;;10.05;100.00;96372.28;1027548;28;20270;-73
2022/10/30 00:34:52;;;;;;;24.67;8.32;;;;;;;10.09;100.00;96377.81;1031337;28;20297;-72
2022/10/30 00:35:23;;;;;;;12.77;5.43;;;;;;;10.07;100.00;96379.91;1027709;28;20045;-72
2022/10/30 00:35:53;;;;;;;17.15;6.35;;;;;;;10.05;100.00;96372.28;1027531;28;20066;-71
2022/10/30 00:36:24;;;;;;;13.60;5.90;;;;;;;10.04;100.00;96381.19;1035652;28;20026;-71
2022/10/30 00:36:54;;;;;;;23.15;6.10;;;;;;;10.06;100.00;96373.88;1031470;28;20182;-72
2022/10/30 00:37:25;;;;;;;11.25;6.05;;;;;;;10.04;100.00;96378.56;1027642;28;20142;-73
2022/10/30 00:37:55;;;;;;;12.85;5.97;;;;;;;10.02;100.00;96377.22;1027492;28;20146;-73
2022/10/30 00:38:26;;;;;;;18.23;5.75;;;;;;;10.00;100.00;96380.09;1023604;28;20033;-72
2022/10/30 00:38:56;;;;;;;17.70;6.70;;;;;;;9.99;100.00;96378.47;1027411;28;20508;-72
2022/10/30 00:39:27;;;;;;;15.52;5.90;;;;;;;9.99;100.00;96372.44;1031459;28;20026;-71
2022/10/30 00:39:57;;;;;;;13.60;6.13;;;;;;;9.98;100.00;96370.88;1027707;28;20031;-71
2022/10/30 00:40:28;;;;;;;15.02;6.25;;;;;;;9.96;100.00;96372.94;1023574;29;20062;-72
2022/10/30 00:41:01;;;;;;;13.82;6.18;;;;;;;9.93;100.00;96368.19;1027307;28;20773;-74
2022/10/30 00:41:32;;;;;;;19.95;5.88;;;;;;;9.94;100.00;96373.19;1011837;29;20038;-71
2022/10/30 00:42:03;;;;;;;17.20;6.30;;;;;;;9.89;100.00;96365.25;1023552;28;20277;-71
2022/10/30 00:42:33;;;;;;;19.15;6.45;;;;;;;9.96;100.00;96373.75;1026934;28;20156;-72
2022/10/30 00:43:03;;;;;;;17.88;6.25;;;;;;;9.97;100.00;96374.53;1034892;28;20056;-72
2022/10/30 00:43:36;;;;;;;12.90;6.10;;;;;;;9.96;100.00;96378.19;1031743;28;20041;-73
2022/10/30 00:44:34;;;;;;;12.02;6.25;;;;;;;9.93;100.00;96374.22;1027813;28;20023;-71
2022/10/30 00:45:04;;;;;;;18.75;7.32;;;;;;;9.90;100.00;96372.09;1031522;28;20261;-72
2022/10/30 00:45:35;;;;;;;15.10;5.88;;;;;;;9.92;100.00;96372.63;1019629;28;20839;-71
2022/10/30 00:46:20;;;;;;;14.77;6.07;;;;;;;9.92;100.00;96372.63;1024095;28;20057;-72
2022/10/30 00:46:50;;;;;;;16.80;5.93;;;;;;;9.88;100.00;96377.56;1023547;29;20429;-71
2022/10/30 00:47:54;;;;;;;22.55;6.20;;;;;;;9.88;100.00;96371.53;1023471;29;20273;-71
2022/10/30 00:48:24;;;;;;;11.55;5.45;;;;;;;9.86;100.00;96374.41;1023465;29;20472;-71
2022/10/30 00:49:06;;;;;;;11.45;5.38;;;;;;;9.86;100.00;96373.63;1027597;28;20278;-73
2022/10/30 00:49:39;;;;;;;16.02;6.03;;;;;;;9.85;100.00;96372.00;1025129;28;20035;-71
2022/10/30 00:50:16;;;;;;;11.25;5.03;;;;;;;9.85;100.00;96377.25;1027450;28;20579;-71
2022/10/30 00:50:46;;;;;;;22.20;5.93;;;;;;;9.66;100.00;96346.09;1023643;28;20286;-71
2022/10/30 00:51:17;;;;;;;17.00;5.97;;;;;;;9.78;100.00;96372.19;1027453;28;20270;-72
2022/10/30 00:51:49;;;;;;;14.90;6.22;;;;;;;9.67;100.00;96349.50;1023511;29;20019;-73
2022/10/30 00:52:20;;;;;;;12.52;5.65;;;;;;;9.82;100.00;96369.88;1026867;28;20031;-73
2022/10/30 00:52:56;;;;;;;13.50;5.43;;;;;;;9.82;100.00;96377.72;1027461;28;20633;-73
2022/10/30 00:53:27;;;;;;;14.55;5.43;;;;;;;9.79;100.00;96378.22;1027485;28;20325;-70
2022/10/30 00:53:58;;;;;;;19.08;6.18;;;;;;;9.78;100.00;96376.63;1019642;29;20369;-72
2022/10/30 00:54:28;;;;;;;13.40;5.45;;;;;;;9.79;100.00;96367.72;1031698;28;20030;-72
2022/10/30 00:55:04;;;;;;;14.18;5.25;;;;;;;9.77;100.00;96373.22;1025712;28;20796;-71
2022/10/30 00:55:37;;;;;;;12.68;5.55;;;;;;;9.78;100.00;96376.63;1019500;29;20046;-71
2022/10/30 00:56:08;;;;;;;10.85;5.32;;;;;;;9.77;100.00;96378.47;1023484;29;20282;-72
2022/10/30 00:56:39;;;;;;;11.05;4.82;;;;;;;9.78;100.00;96372.19;1026858;28;20265;-71
2022/10/30 00:57:12;;;;;;;17.75;6.20;;;;;;;9.80;100.00;96374.59;1027530;28;20029;-73
2022/10/30 00:57:42;;;;;;;9.35;5.78;;;;;;;9.79;100.00;96375.59;1027501;28;20488;-70
2022/10/30 00:58:15;;;;;;;15.43;6.45;;;;;;;9.81;100.00;96368.28;1035456;28;20284;-70
2022/10/30 00:59:06;;;;;;;11.77;5.20;;;;;;;9.79;100.00;96362.50;1023590;29;20023;-73
2022/10/30 00:59:37;;;;;;;13.57;5.63;;;;;;;9.81;100.00;96365.69;1023268;28;20279;-72
2022/10/30 01:00:08;;;;;;;10.98;5.20;;;;;;;9.81;100.00;96371.72;1027328;28;20262;-71
2022/10/30 01:00:39;;;;;;;12.45;5.82;;;;;;;9.81;100.00;96368.28;1035758;28;20040;-73
2022/10/30 01:01:12;;;;;;;10.15;5.63;;;;;;;9.82;100.00;96356.78;1035618;28;20663;-73
2022/10/30 01:01:43;;;;;;;9.77;5.30;;;;;;;9.82;100.00;96367.25;1027309;28;20289;-72
2022/10/30 01:02:14;;;;;;;11.88;5.60;;;;;;;9.82;100.00;96367.25;1022970;29;20805;-73
2022/10/30 01:02:47;;;;;;;15.38;5.80;;;;;;;9.81;100.00;96369.09;1019386;29;20274;-72
2022/10/30 01:03:18;;;;;;;13.27;6.40;;;;;;;9.81;100.00;96365.69;1017780;29;20355;-71
2022/10/30 01:03:49;;;;;;;15.48;5.18;;;;;;;9.79;100.00;96373.78;1023495;29;20093;-71
2022/10/30 01:04:20;;;;;;;15.00;5.55;;;;;;;9.76;100.00;96357.72;1031570;28;20053;-71
2022/10/30 01:04:54;;;;;;;13.40;5.63;;;;;;;9.80;100.00;96367.50;1024289;28;20669;-70
2022/10/30 01:05:25;;;;;;;14.63;5.78;;;;;;;9.80;100.00;96366.72;1019768;29;20035;-71
2022/10/30 01:06:00;;;;;;;14.25;6.07;;;;;;;9.79;100.00;96367.72;1031482;28;20262;-74
2022/10/30 01:06:31;;;;;;;19.88;5.38;;;;;;;9.79;100.00;96365.09;1023461;28;20338;-73
2022/10/30 01:07:07;;;;;;;21.40;6.20;;;;;;;9.71;100.00;96352.44;1027707;28;20262;-73
2022/10/30 01:07:37;;;;;;;12.35;5.05;;;;;;;9.74;100.00;96354.56;1027579;28;21097;-71
2022/10/30 01:08:08;;;;;;;13.50;5.72;;;;;;;9.76;100.00;96363.78;1027236;28;20316;-70
2022/10/30 01:08:38;;;;;;;13.75;5.70;;;;;;;9.76;100.00;96358.53;1027617;28;20145;-72
2022/10/30 01:09:09;;;;;;;16.17;5.40;;;;;;;9.75;100.00;96367.44;1023723;29;20416;-71
2022/10/30 01:09:42;;;;;;;10.80;5.28;;;;;;;9.74;100.00;96360.59;1023721;29;20039;-71
2022/10/30 01:10:13;;;;;;;10.23;5.30;;;;;;;9.69;100.00;96363.13;1022465;28;20281;-73
2022/10/30 01:10:43;;;;;;;10.48;4.60;;;;;;;9.68;100.00;96362.34;1023583;28;20110;-71
2022/10/30 01:11:14;;;;;;;14.38;5.28;;;;;;;9.72;100.00;96367.13;1027523;28;20023;-71
2022/10/30 01:11:44;;;;;;;11.30;5.15;;;;;;;9.72;100.00;96367.91;1023593;28;20063;-72
2022/10/30 01:12:15;;;;;;;13.18;5.40;;;;;;;9.72;100.00;96367.13;1026602;28;20317;-71
2022/10/30 01:12:45;;;;;;;14.43;5.63;;;;;;;9.72;100.00;96364.50;1029433;28;20033;-71
2022/10/30 01:13:16;;;;;;;14.02;5.15;;;;;;;9.74;100.00;96368.47;1029713;28;20023;-72
2022/10/30 01:13:47;;;;;;;10.52;5.03;;;;;;;9.75;100.00;96371.88;1026996;28;20117;-71
2022/10/30 01:14:18;;;;;;;11.38;5.22;;;;;;;9.74;100.00;96360.59;1030855;28;20094;-72
2022/10/30 01:14:50;;;;;;;9.15;5.03;;;;;;;9.74;100.00;96354.56;1027064;28;20429;-72
2022/10/30 01:15:27;;;;;;;11.20;4.90;;;;;;;9.76;100.00;96368.22;1026802;28;20082;-70
2022/10/30 01:16:20;;;;;;;13.13;5.45;;;;;;;9.80;100.00;96366.72;1019037;29;20709;-71
2022/10/30 01:17:18;;;;;;;9.82;5.10;;;;;;;9.79;100.00;96365.94;1020656;29;20262;-73
2022/10/30 01:18:01;;;;;;;9.40;4.57;;;;;;;9.78;100.00;96361.69;1029490;28;20943;-71
2022/10/30 01:18:43;;;;;;;16.92;5.88;;;;;;;9.74;100.00;96354.56;1028137;28;20273;-72
2022/10/30 01:19:19;;;;;;;12.75;5.47;;;;;;;9.78;100.00;96364.31;1026818;28;20266;-71
2022/10/30 01:19:58;;;;;;;19.13;5.40;;;;;;;9.76;100.00;96363.78;1027000;28;20297;-72
2022/10/30 01:20:52;;;;;;;13.00;4.88;;;;;;;9.76;100.00;96370.84;1025682;28;20266;-70
2022/10/30 01:21:59;;;;;;;10.80;4.70;;;;;;;9.76;100.00;96362.97;1031230;28;20281;-73
2022/10/30 01:22:40;;;;;;;13.05;5.13;;;;;;;9.74;100.00;96359.81;1025238;28;20262;-71
2022/10/30 01:23:37;;;;;;;15.15;5.40;;;;;;;9.72;100.00;96369.72;1013003;29;20830;-70
2022/10/30 01:24:11;;;;;;;12.43;4.85;;;;;;;9.65;100.00;96359.41;1024906;28;20664;-71
2022/10/30 01:24:55;;;;;;;12.82;5.30;;;;;;;9.69;100.00;96371.00;1030812;28;20265;-72
2022/10/30 01:25:40;;;;;;;12.50;5.60;;;;;;;9.68;100.00;96366.81;1030912;28;20299;-73
2022/10/30 01:26:25;;;;;;;13.15;5.47;;;;;;;9.68;100.00;96362.34;1031412;28;20258;-71
2022/10/30 01:27:20;;;;;;;9.88;4.82;;;;;;;9.66;100.00;96361.81;1031676;28;20281;-70
2022/10/30 01:28:15;;;;;;;15.43;5.40;;;;;;;9.64;100.00;96366.50;1035424;28;20238;-70
2022/10/30 01:29:05;;;;;;;13.73;5.05;;;;;;;9.62;100.00;96363.34;1031548;28;20841;-71
2022/10/30 01:29:54;;;;;;;10.60;4.88;;;;;;;9.62;100.00;96362.53;1028886;28;20266;-71
2022/10/30 01:30:42;;;;;;;10.48;4.78;;;;;;;9.62;100.00;96363.34;1031967;28;20246;-71
2022/10/30 01:31:34;;;;;;;9.98;5.13;;;;;;;9.61;100.00;96366.97;1030123;28;20289;-72
2022/10/30 01:33:01;;;;;;;19.27;6.00;;;;;;;9.57;100.00;96365.88;1024389;28;20310;-73
2022/10/30 01:33:40;;;;;;;12.20;4.88;;;;;;;9.56;100.00;96364.28;1015009;29;20272;-73
2022/10/30 01:34:48;;;;;;;12.27;5.10;;;;;;;9.56;100.00;96366.91;1022852;28;20294;-72
2022/10/30 01:35:41;;;;;;;12.18;5.10;;;;;;;9.55;100.00;96365.31;1020648;29;20599;-72
2022/10/30 01:36:55;;;;;;;15.23;5.57;;;;;;;9.52;100.00;96360.53;1013930;29;20772;-72
2022/10/30 01:37:47;;;;;;;13.65;5.78;;;;;;;9.52;100.00;96357.94;1018953;29;20322;-71
2022/10/30 01:38:29;;;;;;;13.68;6.05;;;;;;;9.50;100.00;96361.84;1026822;28;20454;-72
2022/10/30 01:39:03;;;;;;;11.35;5.28;;;;;;;9.45;100.00;96354.69;1023821;28;20341;-71
2022/10/30 01:39:37;;;;;;;15.00;7.20;;;;;;;9.52;100.00;96365.00;1030917;28;20270;-72
2022/10/30 01:40:08;;;;;;;17.35;6.35;;;;;;;9.51;100.00;96364.22;1015361;29;20282;-71
2022/10/30 01:40:39;;;;;;;13.48;5.28;;;;;;;9.45;100.00;96352.06;1011434;29;20273;-71
2022/10/30 01:41:12;;;;;;;11.82;5.10;;;;;;;9.51;100.00;96358.97;1019246;29;20298;-71
2022/10/30 01:41:44;;;;;;;15.23;5.28;;;;;;;9.49;100.00;96345.34;1027012;28;20058;-71
2022/10/30 01:42:43;;;;;;;12.07;4.80;;;;;;;9.51;100.00;96356.34;1022524;29;20278;-71
2022/10/30 01:43:19;;;;;;;10.95;4.93;;;;;;;9.51;100.00;96355.56;1027125;28;20271;-72
2022/10/30 01:43:54;;;;;;;10.93;4.78;;;;;;;9.50;100.00;96353.97;1023090;28;20334;-72
2022/10/30 01:44:29;;;;;;;8.95;4.43;;;;;;;9.40;100.00;96341.53;1022934;28;20269;-71
2022/10/30 01:45:00;;;;;;;11.93;4.68;;;;;;;9.47;100.00;96352.63;1030971;28;20818;-71
2022/10/30 01:46:09;;;;;;;14.15;5.00;;;;;;;9.45;100.00;96352.06;1031081;28;20380;-72
2022/10/30 01:47:02;;;;;;;10.65;5.00;;;;;;;9.45;100.00;96352.06;1027040;28;20018;-71
2022/10/30 01:47:51;;;;;;;11.38;4.68;;;;;;;9.42;100.00;96353.34;1027005;28;20250;-70
2022/10/30 01:48:58;;;;;;;11.75;5.43;;;;;;;9.40;100.00;96354.63;1024449;28;20258;-72
2022/10/30 01:49:47;;;;;;;12.73;4.63;;;;;;;9.39;100.00;96356.44;1033750;28;20781;-71
2022/10/30 01:50:30;;;;;;;16.50;5.65;;;;;;;9.37;100.00;96355.09;1031069;28;20273;-71
2022/10/30 01:51:19;;;;;;;10.98;5.05;;;;;;;9.37;100.00;96357.72;1031144;28;20352;-71
2022/10/30 01:51:55;;;;;;;9.75;4.70;;;;;;;9.36;100.00;96359.53;1027062;28;20268;-72
2022/10/30 01:52:48;;;;;;;8.95;4.53;;;;;;;9.36;100.00;96354.31;1030448;28;20276;-71
2022/10/30 01:53:49;;;;;;;10.38;4.82;;;;;;;9.37;100.00;96357.72;1030616;28;20290;-73
2022/10/30 01:54:32;;;;;;;11.73;5.07;;;;;;;9.39;100.00;96364.31;1030938;28;20267;-72
2022/10/30 01:55:17;;;;;;;11.20;5.03;;;;;;;9.39;100.00;96363.53;1027050;28;20027;-72
2022/10/30 01:56:20;;;;;;;11.73;5.22;;;;;;;9.38;100.00;96356.69;1023125;29;20382;-73
2022/10/30 01:57:02;;;;;;;14.00;5.47;;;;;;;9.35;100.00;96354.53;1018422;29;20267;-71
2022/10/30 01:57:58;;;;;;;17.85;4.45;;;;;;;9.34;100.00;96360.81;1019428;29;20252;-70
2022/10/30 01:58:54;;;;;;;23.90;5.35;;;;;;;9.28;100.00;96357.31;1023136;29;20563;-71
2022/10/30 01:59:36;;;;;;;12.80;4.70;;;;;;;9.27;100.00;96360.97;1016976;29;20670;-72
2022/10/30 02:00:15;;;;;;;10.88;5.65;;;;;;;9.27;100.00;96360.97;1019630;29;20271;-71
2022/10/30 02:00:48;;;;;;;16.58;5.20;;;;;;;9.27;100.00;96362.81;1019104;29;20259;-71
2022/10/30 02:01:18;;;;;;;13.10;5.47;;;;;;;9.26;100.00;96363.84;1011327;29;20025;-71
2022/10/30 02:01:49;;;;;;;13.48;5.28;;;;;;;9.26;100.00;96361.22;1019139;29;20334;-70
2022/10/30 02:02:19;;;;;;;11.60;5.32;;;;;;;9.26;100.00;96359.41;1022434;29;20580;-73
2022/10/30 02:02:50;;;;;;;10.43;6.15;;;;;;;9.21;100.00;96352.22;1022908;29;20115;-72
2022/10/30 02:03:26;;;;;;;15.85;5.85;;;;;;;9.25;100.00;96362.22;1028437;28;20053;-71
2022/10/30 02:03:56;;;;;;;12.48;5.45;;;;;;;9.23;100.00;96359.06;1024842;28;20036;-71
2022/10/30 02:04:27;;;;;;;12.30;4.72;;;;;;;9.23;100.00;96361.69;1023003;29;20353;-73
2022/10/30 02:04:58;;;;;;;11.73;5.90;;;;;;;9.19;100.00;96356.94;1028944;28;20470;-71
2022/10/30 02:05:39;;;;;;;11.10;5.45;;;;;;;9.20;100.00;96361.13;1035243;28;20468;-73
2022/10/30 02:06:13;;;;;;;11.68;5.10;;;;;;;9.20;100.00;96361.13;1027204;28;20261;-72
2022/10/30 02:06:43;;;;;;;14.65;4.95;;;;;;;9.15;100.00;96353.22;1034882;28;20319;-72
2022/10/30 02:07:14;;;;;;;14.02;5.70;;;;;;;9.17;100.00;96361.59;1023136;28;20761;-72
2022/10/30 02:07:44;;;;;;;12.70;5.22;;;;;;;9.14;100.00;96356.03;1027182;28;20081;-71
2022/10/30 02:08:15;;;;;;;9.73;5.20;;;;;;;9.12;100.00;96353.69;1031015;28;20022;-71
2022/10/30 02:08:46;;;;;;;14.25;5.60;;;;;;;9.17;100.00;96363.44;1019188;29;20039;-72
2022/10/30 02:09:16;;;;;;;15.98;5.38;;;;;;;9.16;100.00;96360.03;1023059;29;20031;-72
2022/10/30 02:09:47;;;;;;;12.10;4.60;;;;;;;9.15;100.00;96358.44;1027172;28;20101;-72
2022/10/30 02:10:20;;;;;;;18.45;5.80;;;;;;;9.14;100.00;96364.69;1030384;28;20511;-72
2022/10/30 02:10:51;;;;;;;11.40;5.72;;;;;;;9.13;100.00;96360.50;1031062;28;20032;-71
2022/10/30 02:11:24;;;;;;;9.52;5.30;;;;;;;9.13;100.00;96364.94;1023064;29;20290;-72
2022/10/30 02:11:55;;;;;;;12.73;5.47;;;;;;;9.12;100.00;96364.16;1022164;28;20350;-72
2022/10/30 02:12:26;;;;;;;14.23;5.57;;;;;;;9.12;100.00;96358.91;1022417;29;21128;-71
2022/10/30 02:12:56;;;;;;;11.30;4.90;;;;;;;9.10;100.00;96355.72;1022972;29;20073;-70
2022/10/30 02:13:26;;;;;;;12.40;5.95;;;;;;;9.14;100.00;96362.06;1023041;28;20082;-70
2022/10/30 02:13:57;;;;;;;10.48;4.80;;;;;;;9.11;100.00;96354.69;1023101;29;20413;-71
2022/10/30 02:14:30;;;;;;;8.82;5.03;;;;;;;9.13;100.00;96360.50;1031153;28;20084;-71
2022/10/30 02:15:00;;;;;;;12.00;5.07;;;;;;;9.11;100.00;96352.06;1031120;28;20033;-72
2022/10/30 02:15:31;;;;;;;11.80;5.07;;;;;;;9.11;100.00;96357.31;1027170;28;20281;-72
2022/10/30 02:16:01;;;;;;;13.35;5.97;;;;;;;9.10;100.00;96360.97;1027075;28;20031;-71
2022/10/30 02:16:33;;;;;;;12.00;5.22;;;;;;;9.10;100.00;96354.94;1027199;28;20085;-71
2022/10/30 02:17:04;;;;;;;8.43;4.60;;;;;;;9.10;100.00;96358.34;1029405;28;20028;-71
2022/10/30 02:17:34;;;;;;;18.70;5.82;;;;;;;9.06;100.00;96354.63;1028884;28;20841;-70
2022/10/30 02:18:05;;;;;;;11.77;5.32;;;;;;;9.05;100.00;96358.25;1031146;28;20034;-72
2022/10/30 02:18:35;;;;;;;19.27;5.25;;;;;;;9.05;100.00;96358.25;1028893;28;20476;-73
2022/10/30 02:19:06;;;;;;;18.90;4.80;;;;;;;9.05;100.00;96355.63;1030923;28;20484;-71
2022/10/30 02:19:39;;;;;;;11.23;4.90;;;;;;;9.05;100.00;96354.84;1023060;28;20023;-70
2022/10/30 02:20:17;;;;;;;9.82;4.85;;;;;;;9.03;100.00;96356.94;1023990;28;20031;-72
2022/10/30 02:20:51;;;;;;;12.25;4.55;;;;;;;9.02;100.00;96352.69;1029031;28;20254;-73
2022/10/30 02:21:22;;;;;;;12.70;4.78;;;;;;;9.02;100.00;96348.28;1031077;28;20711;-71
2022/10/30 02:21:52;;;;;;;10.75;5.25;;;;;;;9.03;100.00;96355.09;1026996;28;20050;-70
2022/10/30 02:22:23;;;;;;;16.85;5.65;;;;;;;9.04;100.00;96354.06;1022369;28;20424;-72
2022/10/30 02:22:54;;;;;;;8.90;4.82;;;;;;;9.02;100.00;96348.28;1026931;28;20354;-70
2022/10/30 02:23:24;;;;;;;12.90;5.20;;;;;;;9.04;100.00;96355.88;1027104;28;20030;-72
2022/10/30 02:23:55;;;;;;;10.65;5.45;;;;;;;9.03;100.00;96352.47;1030526;28;20022;-71
2022/10/30 02:24:25;;;;;;;17.92;4.90;;;;;;;9.03;100.00;96355.09;1031306;28;20046;-71
2022/10/30 02:24:56;;;;;;;10.75;5.28;;;;;;;9.02;100.00;96344.84;1030833;28;20022;-71
2022/10/30 02:25:26;;;;;;;10.52;5.25;;;;;;;8.98;100.00;96345.31;1030899;28;20096;-72
2022/10/30 02:25:57;;;;;;;13.73;5.93;;;;;;;9.01;100.00;96348.50;1027053;28;20038;-72
2022/10/30 02:26:27;;;;;;;13.40;5.00;;;;;;;9.01;100.00;96346.69;1027118;28;20110;-71
2022/10/30 02:26:58;;;;;;;15.38;5.15;;;;;;;9.00;100.00;96350.34;1025878;28;20663;-71
2022/10/30 02:27:28;;;;;;;10.80;4.95;;;;;;;8.99;100.00;96348.75;1014153;29;20036;-69
2022/10/30 02:27:59;;;;;;;11.57;5.53;;;;;;;8.98;100.00;96352.38;1028569;28;20543;-71
2022/10/30 02:28:29;;;;;;;16.02;8.18;;;;;;;8.97;100.00;96356.81;1030149;28;20145;-72
2022/10/30 02:29:00;;;;;;;24.70;6.78;;;;;;;8.98;100.00;96350.56;1022449;28;20034;-72
2022/10/30 02:29:30;;;;;;;20.45;8.02;;;;;;;8.97;100.00;96350.81;1029877;28;20182;-71
2022/10/30 02:30:01;;;;;;;21.92;8.52;;;;;;;8.98;100.00;96352.38;1031532;28;20026;-73
2022/10/30 02:30:31;;;;;;;18.08;8.70;;;;;;;8.97;100.00;96341.13;1022373;28;20039;-71
2022/10/30 02:31:02;;;;;;;30.63;10.18;;;;;;;8.98;100.00;96341.91;1026047;28;20097;-72
2022/10/30 02:31:32;;;;;;;18.52;8.48;;;;;;;8.97;100.00;96348.19;1026425;28;20592;-72
2022/10/30 02:32:03;;;;;;;14.85;7.05;;;;;;;9.04;100.00;96348.03;1024047;28;20469;-70
2022/10/30 02:32:34;;;;;;;17.77;7.30;;;;;;;9.02;100.00;96343.06;1027082;28;20065;-71
2022/10/30 02:33:04;;;;;;;16.52;7.30;;;;;;;9.02;100.00;96343.06;1025621;28;20231;-73
2022/10/30 02:33:35;;;;;;;13.55;6.90;;;;;;;9.01;100.00;96344.06;1022403;29;20019;-72
2022/10/30 02:34:05;;;;;;;12.75;7.07;;;;;;;8.97;100.00;96337.72;1010874;29;20033;-70
2022/10/30 02:34:36;;;;;;;14.30;7.20;;;;;;;9.12;100.00;96347.63;1022009;28;20118;-72
2022/10/30 02:35:07;;;;;;;17.10;7.60;;;;;;;9.10;100.00;96345.25;1026797;28;20336;-70
2022/10/30 02:35:37;;;;;;;17.88;6.90;;;;;;;9.12;100.00;96348.44;1026379;28;20066;-72
2022/10/30 02:36:08;;;;;;;14.40;6.72;;;;;;;9.25;100.00;96341.28;1032966;28;20315;-71
2022/10/30 02:36:38;;;;;;;16.05;7.18;;;;;;;9.20;100.00;96350.66;1038728;28;20577;-72
2022/10/30 02:37:09;;;;;;;11.77;5.32;;;;;;;9.28;100.00;96341.59;1025864;28;20129;-72
2022/10/30 02:37:42;;;;;;;13.27;5.45;;;;;;;9.33;100.00;96340.91;1032460;28;20278;-72
2022/10/30 02:38:12;;;;;;;13.23;5.43;;;;;;;9.32;100.00;96341.91;1026638;28;20037;-72
2022/10/30 02:38:43;;;;;;;14.52;5.50;;;;;;;9.35;100.00;96344.06;1022647;29;20310;-70
2022/10/30 02:39:13;;;;;;;10.75;4.80;;;;;;;9.35;100.00;96341.44;1029921;28;20559;-70
2022/10/30 02:39:44;;;;;;;16.67;5.05;;;;;;;9.45;100.00;96341.59;1026686;28;20035;-71
2022/10/30 02:40:14;;;;;;;20.13;5.22;;;;;;;9.42;100.00;96329.78;1026574;28;20086;-70
2022/10/30 02:40:45;;;;;;;10.27;5.57;;;;;;;9.47;100.00;96323.81;1026794;28;20034;-73
2022/10/30 02:41:15;;;;;;;19.05;5.05;;;;;;;9.49;100.00;96329.63;1022561;28;20038;-70
2022/10/30 02:41:46;;;;;;;15.52;4.88;;;;;;;9.59;100.00;96336.81;1026622;28;20027;-71
2022/10/30 02:42:17;;;;;;;11.80;5.05;;;;;;;9.64;100.00;96334.25;1022133;29;20027;-72